createdAt,value
2022-12-11T00:00:41.089Z,11.82
2022-12-11T00:02:43.833Z,9.82
2022-12-11T00:04:46.162Z,11.43
2022-12-11T09:26:25.300Z,4.90
2022-12-11T09:28:28.081Z,5.87
2022-12-11T09:30:30.412Z,4.20
2022-12-11T09:32:32.767Z,8.18
2022-12-11T09:34:35.447Z,6.47
2022-12-11T09:36:39.733Z,4.60
2022-12-11T09:38:44.172Z,8.10
2022-12-11T09:40:46.888Z,3.70
2022-12-11T09:43:00.333Z,6.78
2022-12-11T09:45:05.086Z,3.20
2022-12-11T09:47:35.087Z,4.95
2022-12-11T09:49:44.041Z,4.57
2022-12-11T09:52:15.749Z,4.25
2022-12-11T09:54:18.346Z,6.78
2022-12-11T09:56:36.455Z,5.07
2022-12-11T09:58:57.900Z,4.25
2022-12-11T10:01:18.387Z,4.90
2022-12-11T10:03:29.635Z,3.87
2022-12-11T10:05:37.466Z,6.12
2022-12-11T10:07:54.896Z,3.67
2022-12-11T10:10:27.114Z,6.20
2022-12-11T10:12:38.280Z,4.57
2022-12-11T10:15:12.493Z,4.82
2022-12-11T10:17:28.961Z,4.87
2022-12-11T10:19:33.146Z,5.00
2022-12-11T10:21:41.722Z,2.67
2022-12-11T10:23:54.500Z,5.80
2022-12-11T10:26:07.892Z,6.30
2022-12-11T10:28:15.382Z,4.68
2022-12-11T10:30:33.047Z,3.92
2022-12-11T10:33:06.759Z,4.78
2022-12-11T10:35:18.314Z,5.00
2022-12-11T10:37:21.143Z,5.07
2022-12-11T10:39:23.627Z,6.90
2022-12-11T10:41:42.192Z,7.53
2022-12-11T10:43:47.392Z,5.93
2022-12-11T10:45:51.794Z,6.05
2022-12-11T10:48:11.824Z,6.32
2022-12-11T10:50:26.116Z,4.68
2022-12-11T10:52:46.875Z,5.87
2022-12-11T10:55:18.575Z,5.50
2022-12-11T10:57:31.385Z,5.40
2022-12-11T10:59:36.642Z,5.22
2022-12-11T11:01:39.013Z,10.82
2022-12-11T11:03:55.686Z,6.60
2022-12-11T11:06:04.066Z,4.82
2022-12-11T11:08:20.178Z,5.43
2022-12-11T11:10:22.845Z,4.18
2022-12-11T11:12:27.657Z,8.23
2022-12-11T11:14:29.993Z,6.35
2022-12-11T11:16:37.373Z,3.47
2022-12-11T11:18:41.772Z,5.10
2022-12-11T11:20:48.154Z,6.30
2022-12-11T11:22:56.019Z,5.25
2022-12-11T11:24:59.764Z,7.43
2022-12-11T11:27:18.793Z,4.85
2022-12-11T11:29:30.338Z,5.40
2022-12-11T11:31:35.958Z,6.95
2022-12-11T11:34:05.818Z,9.65
2022-12-11T11:36:21.739Z,5.78
2022-12-11T11:38:32.975Z,7.80
2022-12-11T11:40:44.844Z,6.25
2022-12-11T11:43:11.018Z,6.60
2022-12-11T11:45:19.866Z,7.82
2022-12-11T11:47:27.809Z,5.12
2022-12-11T11:49:34.394Z,6.80
2022-12-11T11:51:43.502Z,5.22
2022-12-11T11:53:50.816Z,8.18
2022-12-11T11:56:18.597Z,8.18
2022-12-11T11:58:27.742Z,6.37
2022-12-11T12:00:33.926Z,5.43
2022-12-11T12:02:37.588Z,6.72
2022-12-11T12:04:40.111Z,6.07
2022-12-11T12:07:03.944Z,5.05
2022-12-11T12:09:26.046Z,5.68
2022-12-11T12:12:02.287Z,5.68
2022-12-11T12:14:22.769Z,4.35
2022-12-11T12:16:52.562Z,5.55
2022-12-11T12:19:25.524Z,6.65
2022-12-11T12:21:36.642Z,7.47
2022-12-11T12:24:05.607Z,4.72
2022-12-11T12:26:27.972Z,6.10
2022-12-11T12:29:05.457Z,5.53
2022-12-11T12:31:11.367Z,5.25
2022-12-11T12:33:40.685Z,6.40
2022-12-11T12:35:54.506Z,9.77
2022-12-11T12:38:30.332Z,7.65
2022-12-11T12:40:40.166Z,8.40
2022-12-11T12:43:11.981Z,4.68
2022-12-11T12:45:15.013Z,7.20
2022-12-11T12:47:18.898Z,10.13
2022-12-11T12:49:41.444Z,6.28
2022-12-11T12:51:45.154Z,8.48
2022-12-11T12:53:55.772Z,10.02
2022-12-11T12:55:58.741Z,6.35
2022-12-11T12:58:05.215Z,6.50
2022-12-11T13:00:13.210Z,8.43
2022-12-11T13:02:17.498Z,6.37
2022-12-11T13:04:55.617Z,5.57
2022-12-11T13:06:58.553Z,8.57
2022-12-11T13:09:19.326Z,10.15
2022-12-11T13:11:32.710Z,7.15
2022-12-11T13:13:49.031Z,8.13
2022-12-11T13:16:07.081Z,6.60
2022-12-11T13:18:39.378Z,10.75
2022-12-11T13:20:51.184Z,7.22
2022-12-11T13:23:06.055Z,5.95
2022-12-11T13:25:27.995Z,7.12
2022-12-11T13:27:39.868Z,8.05
2022-12-11T13:29:42.688Z,9.45
2022-12-11T13:31:45.764Z,7.70
2022-12-11T13:33:53.334Z,8.38
2022-12-11T13:36:16.740Z,7.00
2022-12-11T13:38:22.721Z,7.82
2022-12-11T13:40:29.026Z,6.93
2022-12-11T13:42:40.826Z,12.37
2022-12-11T13:44:48.676Z,9.13
2022-12-11T13:46:53.540Z,9.18
2022-12-11T13:49:02.070Z,10.48
2022-12-11T13:51:06.730Z,7.00
2022-12-11T13:53:15.971Z,8.68
2022-12-11T13:55:27.772Z,7.97
2022-12-11T13:57:30.496Z,8.68
2022-12-11T13:59:36.041Z,10.18
2022-12-11T14:01:39.590Z,7.62
2022-12-11T14:03:55.517Z,8.15
2022-12-11T14:05:59.360Z,11.27
2022-12-11T14:08:09.250Z,9.90
2022-12-11T14:10:14.927Z,7.80
2022-12-11T14:12:21.426Z,8.73
2022-12-11T14:14:42.256Z,8.50
2022-12-11T14:16:51.713Z,11.48
2022-12-11T14:19:00.830Z,11.20
2022-12-11T14:21:06.053Z,10.43
2022-12-11T14:23:21.943Z,5.87
2022-12-11T14:25:27.763Z,9.32
2022-12-11T14:27:31.155Z,10.18
2022-12-11T14:29:34.239Z,9.55
2022-12-11T14:31:41.084Z,10.68
2022-12-11T14:33:48.028Z,8.93
2022-12-11T14:35:55.088Z,9.55
2022-12-11T14:38:00.881Z,9.90
2022-12-11T14:40:09.789Z,12.32
2022-12-11T14:42:19.695Z,9.55
2022-12-11T14:44:25.850Z,9.82
2022-12-11T14:46:50.342Z,9.65
2022-12-11T14:49:00.748Z,13.55
2022-12-11T14:51:07.908Z,10.02
2022-12-11T14:53:15.614Z,13.75
2022-12-11T14:55:26.956Z,11.05
2022-12-11T14:57:33.444Z,9.75
2022-12-11T14:59:46.018Z,12.93
2022-12-11T15:01:58.217Z,11.40
2022-12-11T15:04:15.589Z,12.75
2022-12-11T15:06:28.800Z,10.50
2022-12-11T15:08:38.665Z,10.05
2022-12-11T15:10:54.842Z,12.80
2022-12-11T15:12:58.830Z,12.13
2022-12-11T15:15:06.668Z,12.65
2022-12-11T15:17:14.666Z,11.82
2022-12-11T15:19:38.463Z,9.45
2022-12-11T15:21:41.412Z,13.10
2022-12-11T15:23:46.648Z,14.82
2022-12-11T15:25:55.518Z,12.43
2022-12-11T15:28:01.936Z,13.30
2022-12-11T15:30:37.819Z,10.55
2022-12-11T15:32:40.636Z,10.95
2022-12-11T15:34:55.834Z,13.73
2022-12-11T15:36:58.286Z,9.88
2022-12-11T15:39:01.684Z,12.30
2022-12-11T15:41:04.860Z,12.00
2022-12-11T15:43:09.330Z,13.35
2022-12-11T15:45:19.933Z,12.82
2022-12-11T15:47:27.250Z,11.80
2022-12-11T15:49:30.390Z,12.40
2022-12-11T15:51:32.894Z,11.75
2022-12-11T15:53:35.865Z,11.48
2022-12-11T15:55:39.493Z,11.88
2022-12-11T15:57:54.704Z,12.10
2022-12-11T15:59:58.962Z,10.98
2022-12-11T16:02:02.589Z,9.65
2022-12-11T16:04:06.085Z,11.23
2022-12-11T16:06:12.283Z,11.27
2022-12-11T16:08:17.788Z,13.80
2022-12-11T16:10:21.829Z,12.07
2022-12-11T16:12:24.250Z,9.95
2022-12-11T16:14:30.165Z,12.07
2022-12-11T16:16:32.968Z,14.73
2022-12-11T16:18:35.548Z,13.07
2022-12-11T16:20:39.863Z,11.80
2022-12-11T16:22:43.209Z,9.18
2022-12-11T16:24:46.167Z,10.90
2022-12-11T16:26:48.799Z,11.88
2022-12-11T16:28:51.974Z,11.02
2022-12-11T16:30:57.704Z,15.68
2022-12-11T16:33:00.299Z,11.27
2022-12-11T16:35:03.097Z,11.20
2022-12-11T16:37:08.704Z,10.45
2022-12-11T16:39:12.578Z,9.07
2022-12-11T16:41:16.521Z,9.23
2022-12-11T16:43:18.889Z,14.93
2022-12-11T16:45:25.381Z,9.98
2022-12-11T16:47:30.082Z,10.93
2022-12-11T16:49:34.450Z,14.30
2022-12-11T16:51:36.873Z,17.15
2022-12-11T16:53:41.606Z,12.07
2022-12-11T16:55:44.252Z,12.40
2022-12-11T16:57:47.743Z,11.55
2022-12-11T16:59:50.978Z,16.40
2022-12-11T17:01:53.562Z,12.68
2022-12-11T17:03:56.387Z,9.98
2022-12-11T17:05:59.214Z,7.43
2022-12-11T17:08:01.843Z,22.10
2022-12-11T17:10:05.138Z,11.75
2022-12-11T17:12:11.097Z,12.32
2022-12-11T17:14:13.962Z,11.70
2022-12-11T17:16:17.393Z,10.70
2022-12-11T17:18:21.365Z,9.23
2022-12-11T17:20:26.095Z,9.02
2022-12-11T17:22:29.024Z,10.07
2022-12-11T17:24:32.863Z,8.98
2022-12-11T17:26:37.452Z,8.10
2022-12-11T17:28:41.032Z,12.02
2022-12-11T17:30:46.102Z,11.95
2022-12-11T17:32:50.113Z,9.88
2022-12-11T17:34:53.298Z,10.35
2022-12-11T17:36:56.714Z,12.43
2022-12-11T17:39:02.118Z,8.40
2022-12-11T17:41:09.556Z,10.95
2022-12-11T17:43:14.452Z,8.32
2022-12-11T17:45:18.887Z,11.02
2022-12-11T17:47:21.741Z,7.85
2022-12-11T17:49:25.327Z,13.40
2022-12-11T17:51:28.186Z,9.15
2022-12-11T17:53:31.884Z,12.60
2022-12-11T17:55:36.357Z,14.95
2022-12-11T17:57:39.294Z,11.85
2022-12-11T17:59:42.138Z,10.32
2022-12-11T18:01:45.168Z,8.80
2022-12-11T18:03:48.750Z,12.05
2022-12-11T18:05:54.683Z,10.38
2022-12-11T18:07:58.352Z,8.27
2022-12-11T18:10:01.670Z,17.98
2022-12-11T18:12:04.408Z,11.20
2022-12-11T18:14:13.714Z,14.90
2022-12-11T18:16:34.337Z,8.50
2022-12-11T18:18:37.777Z,8.80
2022-12-11T18:21:01.360Z,14.23
2022-12-11T18:23:05.212Z,9.40
2022-12-11T18:25:11.447Z,10.02
2022-12-11T18:27:16.498Z,8.63
2022-12-11T18:29:20.313Z,15.25
2022-12-11T18:31:26.947Z,9.93
2022-12-11T18:33:31.624Z,10.13
2022-12-11T18:35:35.127Z,14.60
2022-12-11T18:37:39.212Z,9.98
2022-12-11T18:39:43.194Z,13.95
2022-12-11T18:41:58.340Z,12.43
2022-12-11T18:44:10.162Z,11.07
2022-12-11T18:46:16.621Z,11.38
2022-12-11T18:48:19.842Z,9.43
2022-12-11T18:50:23.334Z,12.60
2022-12-11T18:52:26.704Z,12.90
2022-12-11T18:54:38.006Z,22.95
2022-12-11T18:56:42.820Z,13.15
2022-12-11T18:58:46.937Z,12.43
2022-12-11T19:00:51.667Z,12.52
2022-12-11T19:02:55.241Z,10.05
2022-12-11T19:04:58.716Z,11.55
2022-12-11T19:07:02.498Z,10.65
2022-12-11T19:09:08.474Z,12.93
2022-12-11T19:11:19.253Z,13.57
2022-12-11T19:13:23.231Z,10.65
2022-12-11T19:15:28.022Z,14.32
2022-12-11T19:17:31.290Z,9.93
2022-12-11T19:19:36.492Z,11.20
2022-12-11T19:21:41.087Z,15.18
2022-12-11T19:23:45.015Z,10.95
2022-12-11T19:25:49.519Z,11.95
2022-12-11T19:27:52.945Z,14.52
2022-12-11T19:29:55.999Z,11.93
2022-12-11T19:32:02.344Z,13.32
2022-12-11T19:34:05.621Z,13.57
2022-12-11T19:36:12.407Z,14.93
2022-12-11T19:38:16.492Z,13.55
2022-12-11T19:40:22.301Z,10.68
2022-12-11T19:42:27.749Z,17.60
2022-12-11T19:44:33.208Z,13.32
2022-12-11T19:46:37.635Z,13.77
2022-12-11T19:48:42.357Z,13.18
2022-12-11T19:50:46.468Z,15.50
2022-12-11T19:52:50.258Z,11.30
2022-12-11T19:54:55.184Z,12.25
2022-12-11T19:56:58.663Z,11.43
2022-12-11T19:59:07.041Z,11.77
2022-12-11T20:01:21.939Z,15.35
2022-12-11T20:03:26.840Z,13.50
2022-12-11T20:05:30.334Z,18.60
2022-12-11T20:07:34.016Z,13.85
2022-12-11T20:09:37.658Z,13.10
2022-12-11T20:11:42.935Z,14.18
2022-12-11T20:13:46.632Z,14.98
2022-12-11T20:15:51.960Z,18.67
2022-12-11T20:17:57.198Z,19.65
2022-12-11T20:20:00.762Z,17.40
2022-12-11T20:22:06.019Z,16.15
2022-12-11T20:24:10.266Z,13.90
2022-12-11T20:26:20.496Z,15.60
2022-12-11T20:28:24.271Z,17.12
2022-12-11T20:30:27.704Z,22.85
2022-12-11T20:32:31.329Z,15.02
2022-12-11T20:34:34.509Z,15.23
2022-12-11T20:36:38.161Z,19.10
2022-12-11T20:38:42.275Z,17.67
2022-12-11T20:40:46.520Z,22.65
2022-12-11T20:42:50.535Z,14.73
2022-12-11T20:44:53.850Z,21.50
2022-12-11T20:46:58.449Z,21.08
2022-12-11T20:49:02.562Z,17.35
2022-12-11T20:51:09.535Z,16.25
2022-12-11T20:53:13.129Z,18.05
2022-12-11T20:55:16.471Z,21.35
2022-12-11T20:57:20.639Z,13.30
2022-12-11T20:59:26.393Z,16.55
2022-12-11T21:01:32.338Z,21.70
2022-12-11T21:03:40.407Z,15.32
2022-12-11T21:05:46.727Z,17.00
2022-12-11T21:07:50.401Z,16.37
2022-12-11T21:09:52.968Z,18.25
2022-12-11T21:11:58.358Z,19.75
2022-12-11T21:14:00.957Z,17.02
2022-12-11T21:16:06.211Z,19.90
2022-12-11T21:18:10.153Z,16.05
2022-12-11T21:20:12.904Z,17.12
2022-12-11T21:22:15.241Z,21.77
2022-12-11T21:24:25.064Z,16.95
2022-12-11T21:26:28.165Z,14.73
2022-12-11T21:28:35.528Z,19.90
2022-12-11T21:30:41.218Z,16.80
2022-12-11T21:32:44.025Z,15.65
2022-12-11T21:34:46.410Z,19.58
2022-12-11T21:36:49.145Z,17.77
2022-12-11T21:38:52.826Z,21.15
2022-12-11T21:40:56.416Z,18.48
2022-12-11T21:42:59.371Z,15.65
2022-12-11T21:47:26.066Z,17.95
2022-12-11T21:49:28.770Z,14.23
2022-12-11T21:51:37.104Z,20.35
2022-12-11T21:53:41.945Z,20.25
2022-12-11T21:55:44.547Z,21.17
2022-12-11T21:57:46.791Z,18.08
2022-12-11T21:59:49.074Z,23.02
2022-12-11T22:01:51.973Z,22.00
2022-12-11T22:03:54.853Z,16.67
2022-12-11T22:05:57.152Z,19.67
2022-12-11T22:07:59.562Z,18.67
2022-12-11T22:10:02.627Z,18.00
2022-12-11T22:12:05.158Z,17.42
2022-12-11T22:14:07.720Z,16.67
2022-12-11T22:16:10.323Z,15.65
2022-12-11T22:18:12.994Z,14.32
2022-12-11T22:20:15.345Z,15.85
2022-12-11T22:22:19.251Z,13.43
2022-12-11T22:24:21.629Z,23.30
2022-12-11T22:26:25.793Z,18.42
2022-12-11T22:28:28.446Z,13.85
2022-12-11T22:30:41.403Z,14.45
2022-12-11T22:32:45.568Z,18.12
2022-12-11T22:34:48.178Z,18.55
2022-12-11T22:36:50.680Z,16.92
2022-12-11T22:38:53.594Z,15.82
2022-12-11T22:40:56.344Z,17.15
2022-12-11T22:42:59.616Z,15.80
2022-12-11T22:45:01.944Z,13.65
2022-12-11T22:47:04.534Z,12.27
2022-12-11T22:49:06.865Z,13.52
2022-12-11T22:51:09.323Z,14.45
2022-12-11T22:53:11.927Z,16.45
2022-12-11T22:55:14.799Z,15.07
2022-12-11T22:57:17.218Z,13.65
2022-12-11T22:59:19.823Z,24.90
2022-12-11T23:01:24.690Z,17.35
